Time;durP1;ratioP1;P1;durP2;ratioP2;P2;SDS_P1;SDS_P2;PMS_P1;PMS_P2;Temp;Humidity;BMP_temperature;BMP_pressure;BME280_temperature;BME280_humidity;BME280_pressure;Samples;Min_cycle;Max_cycle;Signal;HPM_P1;HPM_P2
2021/09/13 00:02:30;;;;;;;6.75;3.83;;;14.60;99.90;;;;;;6726939;88;20190;-81
2021/09/13 00:12:30;;;;;;;5.95;3.40;;;14.40;99.90;;;;;;6723331;88;20357;-80
2021/09/13 00:22:31;;;;;;;5.72;3.85;;;14.40;99.90;;;;;;6717329;88;20248;-80
2021/09/13 00:32:31;;;;;;;7.05;3.85;;;14.10;99.90;;;;;;6724065;88;20611;-79
2021/09/13 00:42:33;;;;;;;5.40;3.53;;;14.30;99.90;;;;;;6724039;88;20177;-79
2021/09/13 00:52:34;;;;;;;6.45;4.15;;;14.10;99.90;;;;;;6721516;88;20249;-79
2021/09/13 01:02:34;;;;;;;5.75;3.78;;;13.90;99.90;;;;;;6721373;88;20201;-79
2021/09/13 01:12:35;;;;;;;5.53;3.58;;;13.80;99.90;;;;;;6722625;88;20666;-80
2021/09/13 01:22:39;;;;;;;7.07;3.87;;;13.70;99.90;;;;;;6715508;88;20718;-79
2021/09/13 01:32:39;;;;;;;5.85;3.78;;;13.70;99.90;;;;;;6718902;88;20622;-79
2021/09/13 01:42:40;;;;;;;9.32;3.90;;;13.80;99.90;;;;;;6712651;88;20280;-79
2021/09/13 01:52:40;;;;;;;6.15;3.60;;;13.60;99.90;;;;;;6718113;88;20204;-78
2021/09/13 02:12:44;;;;;;;5.87;3.83;;;13.60;99.90;;;;;;6705847;88;20215;-81
2021/09/13 02:22:45;;;;;;;8.23;3.95;;;13.40;99.90;;;;;;6702593;88;20671;-82
2021/09/13 02:32:45;;;;;;;8.45;4.25;;;13.30;99.90;;;;;;6707920;88;20306;-83
2021/09/13 02:42:46;;;;;;;6.47;4.03;;;13.30;99.90;;;;;;6707721;88;20202;-83
2021/09/13 02:52:46;;;;;;;12.25;4.68;;;13.40;99.90;;;;;;6702310;88;20186;-82
2021/09/13 03:02:47;;;;;;;8.32;3.72;;;13.30;99.90;;;;;;6705688;88;20253;-82
2021/09/13 03:12:48;;;;;;;9.70;4.60;;;13.20;99.90;;;;;;6704968;88;20224;-82
2021/09/13 03:22:48;;;;;;;6.93;4.70;;;13.20;99.90;;;;;;6712111;88;20208;-81
2021/09/13 03:32:49;;;;;;;8.25;5.62;;;13.20;99.90;;;;;;6708139;88;20634;-82
2021/09/13 03:42:49;;;;;;;9.77;5.07;;;13.20;99.90;;;;;;6709566;88;20234;-81
2021/09/13 03:52:50;;;;;;;8.35;4.68;;;13.20;99.90;;;;;;6699488;88;20178;-81
2021/09/13 04:02:51;;;;;;;7.82;5.22;;;13.00;99.90;;;;;;6700914;88;20217;-80
2021/09/13 04:12:51;;;;;;;9.80;6.80;;;13.10;99.90;;;;;;6700288;88;20202;-79
2021/09/13 04:22:52;;;;;;;9.17;6.47;;;12.90;99.90;;;;;;6699284;88;20225;-82
2021/09/13 04:32:53;;;;;;;15.35;9.02;;;12.90;99.90;;;;;;6704005;88;20294;-81
2021/09/13 04:42:53;;;;;;;16.52;11.20;;;12.70;99.90;;;;;;6699109;88;20334;-82
2021/09/13 04:52:54;;;;;;;13.30;8.32;;;12.80;99.90;;;;;;6700627;88;20183;-80
2021/09/13 05:02:54;;;;;;;15.52;8.38;;;12.90;99.90;;;;;;6695575;88;20834;-80
2021/09/13 05:12:55;;;;;;;12.25;7.93;;;12.80;99.90;;;;;;6690769;88;20313;-79
2021/09/13 05:22:56;;;;;;;11.87;7.97;;;12.70;99.90;;;;;;6690005;88;20205;-80
2021/09/13 05:32:56;;;;;;;12.90;8.18;;;12.60;99.90;;;;;;6694043;88;21059;-79
2021/09/13 05:42:57;;;;;;;13.75;8.30;;;12.60;99.90;;;;;;6693397;88;20233;-79
2021/09/13 05:52:57;;;;;;;12.57;8.68;;;12.80;99.90;;;;;;6692596;88;20658;-79
2021/09/13 06:02:58;;;;;;;18.45;9.20;;;13.00;99.90;;;;;;6687275;88;20732;-77
2021/09/13 06:12:59;;;;;;;20.25;10.85;;;13.50;99.90;;;;;;6686648;88;20387;-79
2021/09/13 06:23:00;;;;;;;24.15;11.32;;;13.70;99.90;;;;;;6698425;88;20657;-79
2021/09/13 06:33:00;;;;;;;38.67;17.20;;;13.90;99.90;;;;;;6695144;88;20210;-79
2021/09/13 06:43:01;;;;;;;57.40;22.00;;;14.40;99.90;;;;;;6697427;88;20220;-80
2021/09/13 06:53:02;;;;;;;60.75;24.45;;;14.60;99.90;;;;;;6694235;88;20205;-79
2021/09/13 07:03:04;;;;;;;55.88;23.62;;;14.80;99.90;;;;;;6686451;88;20229;-79
2021/09/13 07:13:04;;;;;;;61.90;26.08;;;14.90;99.90;;;;;;6690363;88;20210;-78
2021/09/13 07:23:05;;;;;;;64.93;26.23;;;15.10;99.90;;;;;;6691142;88;20745;-78
2021/09/13 07:33:05;;;;;;;65.40;27.45;;;15.00;99.90;;;;;;6689270;88;20236;-78
2021/09/13 07:43:06;;;;;;;80.00;24.52;;;15.20;99.90;;;;;;6685309;88;20199;-78
2021/09/13 07:53:07;;;;;;;53.53;25.40;;;15.70;99.90;;;;;;6692307;88;20635;-79
2021/09/13 08:03:07;;;;;;;58.75;27.17;;;15.90;99.90;;;;;;6691060;88;20241;-78
2021/09/13 08:13:08;;;;;;;63.03;27.17;;;16.00;99.90;;;;;;6694330;88;20204;-79
2021/09/13 08:23:08;;;;;;;57.42;25.05;;;16.10;99.90;;;;;;6695201;88;20645;-79
2021/09/13 08:33:09;;;;;;;56.90;25.37;;;16.30;99.90;;;;;;6701358;88;20342;-79
2021/09/13 08:43:11;;;;;;;56.60;25.75;;;16.50;99.90;;;;;;6698259;88;20489;-76
2021/09/13 08:53:14;;;;;;;56.50;25.27;;;16.40;99.90;;;;;;6700907;88;20219;-77
2021/09/13 09:03:15;;;;;;;46.13;22.62;;;17.00;99.90;;;;;;6692228;88;20224;-78
2021/09/13 09:13:16;;;;;;;49.55;24.50;;;18.10;99.90;;;;;;6673448;89;20180;-79
2021/09/13 09:23:16;;;;;;;41.97;21.65;;;19.00;99.90;;;;;;6675548;89;20204;-81
2021/09/13 09:33:22;;;;;;;42.00;20.13;;;20.80;99.90;;;;;;6679482;89;20222;-80
2021/09/13 09:43:23;;;;;;;36.35;18.90;;;21.80;99.90;;;;;;6674432;89;20598;-80
2021/09/13 09:53:29;;;;;;;39.53;19.57;;;22.70;99.90;;;;;;6677279;89;20226;-80
2021/09/13 10:03:33;;;;;;;27.75;16.40;;;23.40;99.90;;;;;;6678375;88;20190;-77
2021/09/13 10:13:33;;;;;;;32.53;16.85;;;24.50;99.90;;;;;;6677970;88;20191;-75
2021/09/13 10:23:34;;;;;;;25.62;15.25;;;25.60;99.90;;;;;;6680956;88;20191;-77
2021/09/13 10:33:35;;;;;;;23.15;12.68;;;26.10;99.90;;;;;;6678902;88;20240;-74
2021/09/13 10:43:36;;;;;;;22.42;12.55;;;26.70;99.90;;;;;;6680718;88;20682;-74
2021/09/13 10:53:38;;;;;;;22.98;13.35;;;27.10;99.90;;;;;;6681178;88;20346;-75
2021/09/13 11:03:40;;;;;;;23.93;13.23;;;27.50;99.40;;;;;;6682908;88;20216;-76
2021/09/13 11:13:43;;;;;;;20.90;13.23;;;28.00;98.70;;;;;;6682960;88;20203;-75
2021/09/13 11:23:44;;;;;;;19.73;11.02;;;27.40;99.00;;;;;;6677705;88;20179;-76
2021/09/13 11:33:45;;;;;;;16.42;10.63;;;28.10;97.60;;;;;;6686093;88;20189;-76
2021/09/13 11:44:01;;;;;;;14.93;8.73;;;28.20;96.30;;;;;;6677762;88;20235;-75
2021/09/13 11:54:05;;;;;;;14.60;9.10;;;29.00;95.10;;;;;;6679685;88;20184;-76
2021/09/13 12:04:21;;;;;;;13.60;7.25;;;29.10;94.40;;;;;;6676973;88;20257;-76
2021/09/13 12:14:22;;;;;;;7.70;5.62;;;29.80;92.90;;;;;;6686737;88;20249;-75
2021/09/13 12:24:23;;;;;;;12.00;6.20;;;29.80;92.70;;;;;;6682599;88;20311;-75
2021/09/13 12:34:23;;;;;;;7.82;5.07;;;29.20;91.20;;;;;;6677902;88;20697;-76
2021/09/13 12:44:26;;;;;;;6.55;5.00;;;29.50;90.80;;;;;;6680494;88;20257;-76
2021/09/13 12:54:35;;;;;;;7.43;4.00;;;27.80;91.60;;;;;;6676595;88;20312;-76
2021/09/13 13:04:37;;;;;;;6.12;3.80;;;30.20;89.60;;;;;;6674266;88;20218;-76
2021/09/13 13:14:37;;;;;;;8.00;4.57;;;29.70;86.60;;;;;;6678019;88;20215;-76
2021/09/13 13:24:38;;;;;;;6.60;4.50;;;28.90;87.00;;;;;;6677317;89;20680;-74
2021/09/13 13:34:40;;;;;;;8.35;4.00;;;28.00;89.00;;;;;;6680444;89;20197;-74
2021/09/13 13:44:40;;;;;;;7.17;4.03;;;28.70;89.30;;;;;;6679608;88;20334;-78
2021/09/13 13:54:41;;;;;;;7.43;4.47;;;28.90;86.90;;;;;;6682846;88;20194;-76
2021/09/13 14:04:41;;;;;;;8.02;4.72;;;28.60;89.60;;;;;;6683943;77;20194;-78
2021/09/13 14:14:42;;;;;;;9.85;4.35;;;28.60;89.80;;;;;;6695842;88;20386;-77
2021/09/13 14:24:42;;;;;;;8.13;5.07;;;28.60;90.00;;;;;;6681013;88;20209;-76
2021/09/13 14:34:43;;;;;;;8.57;4.77;;;28.00;89.40;;;;;;6680325;88;20212;-77
2021/09/13 14:44:43;;;;;;;9.57;4.50;;;27.40;90.00;;;;;;6663963;89;20192;-77
2021/09/13 14:54:44;;;;;;;6.57;4.23;;;27.30;91.40;;;;;;6675729;88;20670;-77
2021/09/13 15:04:44;;;;;;;4.97;4.03;;;27.10;91.20;;;;;;6669287;88;20221;-76
2021/09/13 15:14:45;;;;;;;6.87;4.35;;;26.80;91.30;;;;;;6677348;88;20353;-76
2021/09/13 15:24:46;;;;;;;9.07;4.60;;;25.60;91.70;;;;;;6680696;88;20296;-77
2021/09/13 15:34:47;;;;;;;9.05;4.95;;;25.80;92.70;;;;;;6682685;88;20207;-76
2021/09/13 15:44:48;;;;;;;7.35;5.37;;;25.50;93.70;;;;;;6689511;88;20212;-77
2021/09/13 15:54:48;;;;;;;11.65;5.00;;;25.60;93.20;;;;;;6683958;88;20234;-76
2021/09/13 16:04:50;;;;;;;9.05;5.10;;;26.10;93.60;;;;;;6677352;88;20206;-77
2021/09/13 16:14:51;;;;;;;8.15;4.97;;;26.30;92.70;;;;;;6677720;88;20174;-76
2021/09/13 16:24:53;;;;;;;6.28;5.20;;;26.10;92.40;;;;;;6676298;88;20231;-77
2021/09/13 16:34:54;;;;;;;7.47;4.82;;;25.30;93.80;;;;;;6676845;88;20213;-79
2021/09/13 16:44:54;;;;;;;6.50;4.87;;;25.00;95.40;;;;;;6679902;88;20194;-79
2021/09/13 16:54:55;;;;;;;8.45;5.53;;;24.50;95.90;;;;;;6686820;88;20783;-82
2021/09/13 17:04:55;;;;;;;8.95;5.65;;;24.10;97.10;;;;;;6686343;88;20696;-78
2021/09/13 17:14:57;;;;;;;7.62;5.60;;;23.40;97.20;;;;;;6688728;88;20345;-78
2021/09/13 17:24:58;;;;;;;8.55;6.57;;;22.80;99.00;;;;;;6680415;88;20227;-78
2021/09/13 17:34:58;;;;;;;9.60;6.90;;;22.40;99.90;;;;;;6678955;88;20190;-77
2021/09/13 17:44:59;;;;;;;11.02;6.93;;;22.10;99.90;;;;;;6689229;88;20177;-76
2021/09/13 17:54:59;;;;;;;9.88;7.40;;;21.50;99.90;;;;;;6681789;88;20216;-76
2021/09/13 18:05:00;;;;;;;10.63;7.35;;;21.00;99.90;;;;;;6680959;88;20209;-76
2021/09/13 18:15:01;;;;;;;9.73;7.60;;;20.70;99.90;;;;;;6682355;88;20194;-77
2021/09/13 18:25:02;;;;;;;12.65;7.28;;;20.20;99.90;;;;;;6683540;88;20214;-75
2021/09/13 18:35:03;;;;;;;10.02;7.57;;;19.80;99.90;;;;;;6683192;88;20230;-75
2021/09/13 18:45:05;;;;;;;10.60;7.93;;;19.60;99.90;;;;;;6684822;88;20610;-77
2021/09/13 18:55:06;;;;;;;11.98;8.25;;;19.40;99.90;;;;;;6683104;88;20247;-75
2021/09/13 19:05:07;;;;;;;10.52;8.45;;;19.30;99.90;;;;;;6685453;88;20190;-76
2021/09/13 19:15:08;;;;;;;12.63;8.45;;;18.90;99.90;;;;;;6681751;88;20198;-76
2021/09/13 19:25:10;;;;;;;11.12;8.82;;;18.80;99.90;;;;;;6690970;88;20180;-77
2021/09/13 19:35:11;;;;;;;12.60;9.40;;;18.80;99.90;;;;;;6693065;88;20251;-78
2021/09/13 19:45:12;;;;;;;14.55;9.95;;;18.40;99.90;;;;;;6690817;88;20224;-77
2021/09/13 19:55:12;;;;;;;19.27;10.10;;;18.20;99.90;;;;;;6688694;88;20280;-77
2021/09/13 20:05:16;;;;;;;13.95;10.10;;;18.00;99.90;;;;;;6684842;88;20327;-75
2021/09/13 20:15:17;;;;;;;12.40;9.70;;;17.90;99.90;;;;;;6678927;88;20753;-75
2021/09/13 20:25:19;;;;;;;15.27;9.60;;;17.70;99.90;;;;;;6679150;88;20682;-76
2021/09/13 20:35:19;;;;;;;15.73;10.27;;;17.80;99.90;;;;;;6678949;88;20224;-76
2021/09/13 20:45:20;;;;;;;16.30;11.50;;;17.80;99.90;;;;;;6674409;88;20179;-76
2021/09/13 20:55:21;;;;;;;13.97;10.13;;;17.60;99.90;;;;;;6678259;88;20212;-76
2021/09/13 21:05:21;;;;;;;15.40;10.65;;;17.40;99.90;;;;;;6677445;88;20703;-74
2021/09/13 21:15:22;;;;;;;17.48;11.25;;;17.30;99.90;;;;;;6677154;88;20203;-75
2021/09/13 21:25:22;;;;;;;14.70;11.35;;;17.00;99.90;;;;;;6677801;88;20208;-75
2021/09/13 21:35:23;;;;;;;16.30;10.40;;;16.80;99.90;;;;;;6676857;88;20210;-75
2021/09/13 21:45:23;;;;;;;14.93;10.20;;;16.80;99.90;;;;;;6676980;88;20226;-75
2021/09/13 21:55:24;;;;;;;15.15;11.15;;;16.60;99.90;;;;;;6673443;88;20223;-75
2021/09/13 22:05:24;;;;;;;17.37;11.75;;;16.60;99.90;;;;;;6674817;88;20213;-75
2021/09/13 22:15:25;;;;;;;14.10;11.07;;;16.40;99.90;;;;;;6701861;77;20240;-78
2021/09/13 22:25:26;;;;;;;17.23;11.23;;;16.30;99.90;;;;;;6716840;88;20535;-78
2021/09/13 22:35:26;;;;;;;17.58;11.93;;;16.20;99.90;;;;;;6717347;88;20295;-78
2021/09/13 22:45:27;;;;;;;14.13;10.98;;;16.00;99.90;;;;;;6713597;88;20365;-77
2021/09/13 22:55:27;;;;;;;16.50;11.80;;;15.70;99.90;;;;;;6701750;88;20293;-78
2021/09/13 23:05:28;;;;;;;16.92;11.55;;;15.40;99.90;;;;;;6701459;88;20223;-78
2021/09/13 23:15:29;;;;;;;14.60;11.48;;;15.40;99.90;;;;;;6702771;88;20217;-78
2021/09/13 23:25:29;;;;;;;12.60;10.67;;;15.50;99.90;;;;;;6702637;88;20216;-78
2021/09/13 23:35:30;;;;;;;15.75;11.48;;;15.40;99.90;;;;;;6698292;88;21027;-78
2021/09/13 23:45:31;;;;;;;15.35;11.10;;;15.20;99.90;;;;;;6701041;88;20189;-78
2021/09/13 23:55:31;;;;;;;15.70;11.88;;;15.20;99.90;;;;;;6701363;88;20216;-78
